sensor_id;sensor_type;location;lat;lon;timestamp;pressure;altitude;pressure_sealevel;temperature;humidity
68855;BME280;69984;-43.570;172.580;2024-02-21T00:02:24;102664.81;;;19.85;51.31
68855;BME280;69984;-43.570;172.580;2024-02-21T00:04:51;102650.34;;;20.21;51.96
68855;BME280;69984;-43.570;172.580;2024-02-21T00:07:18;102647.34;;;20.66;49.91
68855;BME280;69984;-43.570;172.580;2024-02-21T00:09:45;102651.00;;;20.23;50.20
68855;BME280;69984;-43.570;172.580;2024-02-21T00:12:12;102648.00;;;19.33;52.53
68855;BME280;69984;-43.570;172.580;2024-02-21T00:14:42;102643.66;;;19.75;51.87
68855;BME280;69984;-43.570;172.580;2024-02-21T00:17:09;102649.41;;;19.97;51.58
68855;BME280;69984;-43.570;172.580;2024-02-21T00:19:39;102632.66;;;20.04;53.69
68855;BME280;69984;-43.570;172.580;2024-02-21T00:22:06;102641.88;;;19.84;52.45
68855;BME280;69984;-43.570;172.580;2024-02-21T00:24:33;102634.22;;;20.23;51.01
68855;BME280;69984;-43.570;172.580;2024-02-21T00:27:00;102645.69;;;20.57;52.24
68855;BME280;69984;-43.570;172.580;2024-02-21T00:29:26;102637.63;;;20.33;51.58
68855;BME280;69984;-43.570;172.580;2024-02-21T00:31:53;102628.34;;;20.69;51.40
68855;BME280;69984;-43.570;172.580;2024-02-21T00:34:20;102629.25;;;21.18;49.24
68855;BME280;69984;-43.570;172.580;2024-02-21T00:36:47;102624.28;;;19.91;51.90
68855;BME280;69984;-43.570;172.580;2024-02-21T00:39:14;102627.41;;;19.86;52.48
68855;BME280;69984;-43.570;172.580;2024-02-21T00:41:41;102629.22;;;20.86;50.66
68855;BME280;69984;-43.570;172.580;2024-02-21T00:44:08;102623.44;;;22.02;48.37
68855;BME280;69984;-43.570;172.580;2024-02-21T00:46:36;102628.50;;;21.73;47.92
68855;BME280;69984;-43.570;172.580;2024-02-21T00:49:05;102631.50;;;21.70;48.34
68855;BME280;69984;-43.570;172.580;2024-02-21T00:51:31;102631.47;;;21.78;48.05
68855;BME280;69984;-43.570;172.580;2024-02-21T00:53:58;102623.13;;;21.81;47.36
68855;BME280;69984;-43.570;172.580;2024-02-21T00:56:25;102625.97;;;22.26;47.41
68855;BME280;69984;-43.570;172.580;2024-02-21T00:58:52;102629.63;;;23.24;46.35
68855;BME280;69984;-43.570;172.580;2024-02-21T01:01:23;102617.91;;;23.77;45.94
68855;BME280;69984;-43.570;172.580;2024-02-21T01:03:51;102617.69;;;23.94;43.10
68855;BME280;69984;-43.570;172.580;2024-02-21T01:06:21;102620.19;;;23.80;43.60
68855;BME280;69984;-43.570;172.580;2024-02-21T01:08:49;102605.63;;;24.33;43.35
68855;BME280;69984;-43.570;172.580;2024-02-21T01:11:16;102607.31;;;24.56;42.16
68855;BME280;69984;-43.570;172.580;2024-02-21T01:13:44;102610.50;;;24.45;40.56
68855;BME280;69984;-43.570;172.580;2024-02-21T01:16:11;102602.91;;;24.48;40.90
68855;BME280;69984;-43.570;172.580;2024-02-21T01:18:38;102600.91;;;24.35;42.49
68855;BME280;69984;-43.570;172.580;2024-02-21T01:21:08;102604.19;;;24.73;41.04
68855;BME280;69984;-43.570;172.580;2024-02-21T01:23:36;102596.53;;;25.19;42.87
68855;BME280;69984;-43.570;172.580;2024-02-21T01:26:04;102599.41;;;24.90;40.34
68855;BME280;69984;-43.570;172.580;2024-02-21T01:28:31;102595.41;;;24.22;39.53
68855;BME280;69984;-43.570;172.580;2024-02-21T01:30:58;102596.88;;;24.25;41.20
68855;BME280;69984;-43.570;172.580;2024-02-21T01:33:25;102598.38;;;24.49;42.10
68855;BME280;69984;-43.570;172.580;2024-02-21T01:35:52;102595.56;;;24.57;41.18
68855;BME280;69984;-43.570;172.580;2024-02-21T01:38:19;102597.41;;;24.56;39.76
68855;BME280;69984;-43.570;172.580;2024-02-21T01:40:46;102595.38;;;24.58;38.52
68855;BME280;69984;-43.570;172.580;2024-02-21T01:43:18;102603.69;;;24.84;39.82
68855;BME280;69984;-43.570;172.580;2024-02-21T01:45:50;102592.56;;;24.88;40.62
68855;BME280;69984;-43.570;172.580;2024-02-21T01:48:19;102601.94;;;24.98;37.70
68855;BME280;69984;-43.570;172.580;2024-02-21T01:50:47;102592.88;;;25.27;40.01
68855;BME280;69984;-43.570;172.580;2024-02-21T01:53:34;102591.53;;;24.67;41.79
68855;BME280;69984;-43.570;172.580;2024-02-21T01:56:03;102598.13;;;24.65;39.98
68855;BME280;69984;-43.570;172.580;2024-02-21T01:58:32;102589.09;;;24.87;40.99
68855;BME280;69984;-43.570;172.580;2024-02-21T02:01:03;102583.81;;;24.58;41.47
68855;BME280;69984;-43.570;172.580;2024-02-21T02:03:31;102570.09;;;24.67;41.68
68855;BME280;69984;-43.570;172.580;2024-02-21T02:05:58;102580.44;;;24.92;39.71
68855;BME280;69984;-43.570;172.580;2024-02-21T02:08:26;102570.06;;;24.10;43.44
68855;BME280;69984;-43.570;172.580;2024-02-21T02:10:53;102570.00;;;24.18;41.73
68855;BME280;69984;-43.570;172.580;2024-02-21T02:13:20;102568.78;;;24.21;42.68
68855;BME280;69984;-43.570;172.580;2024-02-21T02:15:48;102565.88;;;24.37;43.02
68855;BME280;69984;-43.570;172.580;2024-02-21T02:18:16;102566.47;;;24.03;42.91
68855;BME280;69984;-43.570;172.580;2024-02-21T02:20:44;102565.81;;;24.30;41.60
68855;BME280;69984;-43.570;172.580;2024-02-21T02:25:49;102557.94;;;24.29;41.32
68855;BME280;69984;-43.570;172.580;2024-02-21T02:28:20;102562.09;;;24.31;43.08
68855;BME280;69984;-43.570;172.580;2024-02-21T02:30:48;102552.63;;;24.14;41.97
68855;BME280;69984;-43.570;172.580;2024-02-21T02:33:15;102565.19;;;23.63;43.50
68855;BME280;69984;-43.570;172.580;2024-02-21T02:35:43;102565.84;;;24.01;43.35
68855;BME280;69984;-43.570;172.580;2024-02-21T02:38:10;102554.50;;;23.99;43.75
68855;BME280;69984;-43.570;172.580;2024-02-21T02:40:41;102560.09;;;24.82;42.35
68855;BME280;69984;-43.570;172.580;2024-02-21T02:43:08;102557.84;;;24.37;42.65
68855;BME280;69984;-43.570;172.580;2024-02-21T02:45:35;102555.78;;;24.39;40.48
68855;BME280;69984;-43.570;172.580;2024-02-21T02:48:02;102558.19;;;23.98;42.12
68855;BME280;69984;-43.570;172.580;2024-02-21T02:50:30;102559.28;;;24.18;42.34
68855;BME280;69984;-43.570;172.580;2024-02-21T02:52:57;102553.31;;;24.59;41.88
68855;BME280;69984;-43.570;172.580;2024-02-21T02:55:24;102552.59;;;24.29;40.71
68855;BME280;69984;-43.570;172.580;2024-02-21T02:57:52;102551.25;;;24.18;41.29
68855;BME280;69984;-43.570;172.580;2024-02-21T03:00:19;102569.31;;;23.66;42.92
68855;BME280;69984;-43.570;172.580;2024-02-21T03:02:48;102547.00;;;24.09;42.76
68855;BME280;69984;-43.570;172.580;2024-02-21T03:05:20;102550.41;;;24.03;41.72
68855;BME280;69984;-43.570;172.580;2024-02-21T03:07:48;102550.69;;;24.23;41.95
68855;BME280;69984;-43.570;172.580;2024-02-21T03:10:16;102553.84;;;23.97;42.83
68855;BME280;69984;-43.570;172.580;2024-02-21T03:12:43;102558.97;;;24.49;43.59
68855;BME280;69984;-43.570;172.580;2024-02-21T03:15:10;102559.44;;;25.02;40.96
68855;BME280;69984;-43.570;172.580;2024-02-21T03:17:37;102562.75;;;24.97;41.96
68855;BME280;69984;-43.570;172.580;2024-02-21T03:20:05;102566.69;;;24.16;41.45
68855;BME280;69984;-43.570;172.580;2024-02-21T03:22:35;102561.91;;;24.75;39.94
68855;BME280;69984;-43.570;172.580;2024-02-21T03:25:02;102553.31;;;24.59;42.36
68855;BME280;69984;-43.570;172.580;2024-02-21T03:27:29;102558.06;;;24.42;39.50
68855;BME280;69984;-43.570;172.580;2024-02-21T03:29:55;102563.06;;;23.59;42.50
68855;BME280;69984;-43.570;172.580;2024-02-21T03:32:22;102555.16;;;24.58;40.79
68855;BME280;69984;-43.570;172.580;2024-02-21T03:34:49;102573.66;;;25.23;40.69
68855;BME280;69984;-43.570;172.580;2024-02-21T03:37:16;102568.53;;;25.28;40.62
68855;BME280;69984;-43.570;172.580;2024-02-21T03:39:44;102567.44;;;25.23;41.94
68855;BME280;69984;-43.570;172.580;2024-02-21T03:42:11;102561.66;;;24.70;40.78
68855;BME280;69984;-43.570;172.580;2024-02-21T03:44:39;102550.84;;;24.21;42.46
68855;BME280;69984;-43.570;172.580;2024-02-21T03:47:06;102563.56;;;24.13;43.62
68855;BME280;69984;-43.570;172.580;2024-02-21T03:49:33;102562.41;;;24.22;42.82
68855;BME280;69984;-43.570;172.580;2024-02-21T03:51:59;102555.63;;;24.83;41.65
68855;BME280;69984;-43.570;172.580;2024-02-21T03:54:26;102564.78;;;24.74;42.20
68855;BME280;69984;-43.570;172.580;2024-02-21T03:56:53;102566.00;;;25.20;41.18
68855;BME280;69984;-43.570;172.580;2024-02-21T03:59:21;102565.44;;;25.31;42.58
68855;BME280;69984;-43.570;172.580;2024-02-21T04:01:54;102566.88;;;25.27;41.61
68855;BME280;69984;-43.570;172.580;2024-02-21T04:04:22;102557.47;;;25.45;39.90
68855;BME280;69984;-43.570;172.580;2024-02-21T04:06:49;102558.88;;;25.41;40.81
68855;BME280;69984;-43.570;172.580;2024-02-21T04:09:17;102571.94;;;25.16;43.29
68855;BME280;69984;-43.570;172.580;2024-02-21T04:11:44;102557.25;;;24.20;44.19
68855;BME280;69984;-43.570;172.580;2024-02-21T04:14:11;102566.00;;;25.20;42.74
68855;BME280;69984;-43.570;172.580;2024-02-21T04:16:38;102575.75;;;25.00;43.25
68855;BME280;69984;-43.570;172.580;2024-02-21T04:19:05;102571.47;;;25.06;40.81
68855;BME280;69984;-43.570;172.580;2024-02-21T04:21:32;102562.69;;;24.48;42.32
68855;BME280;69984;-43.570;172.580;2024-02-21T04:23:59;102568.69;;;24.50;43.63
68855;BME280;69984;-43.570;172.580;2024-02-21T04:26:28;102568.38;;;25.09;42.73
68855;BME280;69984;-43.570;172.580;2024-02-21T04:28:55;102561.06;;;25.24;41.58
68855;BME280;69984;-43.570;172.580;2024-02-21T04:31:22;102561.91;;;24.54;43.27
68855;BME280;69984;-43.570;172.580;2024-02-21T04:33:48;102563.97;;;25.22;41.06
68855;BME280;69984;-43.570;172.580;2024-02-21T04:36:15;102560.00;;;24.91;43.00
68855;BME280;69984;-43.570;172.580;2024-02-21T04:38:42;102570.63;;;25.05;42.01
68855;BME280;69984;-43.570;172.580;2024-02-21T04:41:09;102567.22;;;25.18;42.13
68855;BME280;69984;-43.570;172.580;2024-02-21T04:43:36;102558.72;;;24.65;42.70
68855;BME280;69984;-43.570;172.580;2024-02-21T04:46:04;102572.03;;;25.57;42.01
68855;BME280;69984;-43.570;172.580;2024-02-21T04:48:31;102568.47;;;26.58;39.97
68855;BME280;69984;-43.570;172.580;2024-02-21T04:50:58;102570.91;;;25.45;41.27
68855;BME280;69984;-43.570;172.580;2024-02-21T04:53:25;102567.22;;;25.87;40.90
68855;BME280;69984;-43.570;172.580;2024-02-21T04:55:52;102571.47;;;25.68;41.10
68855;BME280;69984;-43.570;172.580;2024-02-21T04:58:19;102572.13;;;24.08;44.05
68855;BME280;69984;-43.570;172.580;2024-02-21T05:00:46;102580.63;;;23.97;44.26
68855;BME280;69984;-43.570;172.580;2024-02-21T05:03:13;102571.19;;;24.94;42.59
68855;BME280;69984;-43.570;172.580;2024-02-21T05:05:40;102569.25;;;24.88;42.65
68855;BME280;69984;-43.570;172.580;2024-02-21T05:08:07;102569.56;;;25.27;42.16
68855;BME280;69984;-43.570;172.580;2024-02-21T05:10:34;102573.09;;;26.10;40.69
68855;BME280;69984;-43.570;172.580;2024-02-21T05:13:01;102578.50;;;25.69;40.82
68855;BME280;69984;-43.570;172.580;2024-02-21T05:15:28;102573.72;;;25.58;41.01
68855;BME280;69984;-43.570;172.580;2024-02-21T05:17:55;102587.75;;;25.60;41.61
68855;BME280;69984;-43.570;172.580;2024-02-21T05:20:21;102577.00;;;26.94;38.96
68855;BME280;69984;-43.570;172.580;2024-02-21T05:22:48;102576.59;;;26.91;38.66
68855;BME280;69984;-43.570;172.580;2024-02-21T05:25:15;102577.56;;;27.36;38.06
68855;BME280;69984;-43.570;172.580;2024-02-21T05:27:42;102574.06;;;25.89;39.44
68855;BME280;69984;-43.570;172.580;2024-02-21T05:30:09;102573.53;;;25.72;40.78
68855;BME280;69984;-43.570;172.580;2024-02-21T05:32:36;102574.09;;;26.02;39.79
68855;BME280;69984;-43.570;172.580;2024-02-21T05:35:04;102577.66;;;25.34;41.37
68855;BME280;69984;-43.570;172.580;2024-02-21T05:37:31;102580.63;;;25.87;39.21
68855;BME280;69984;-43.570;172.580;2024-02-21T05:39:58;102582.09;;;26.50;39.22
68855;BME280;69984;-43.570;172.580;2024-02-21T05:42:24;102587.38;;;25.69;40.89
68855;BME280;69984;-43.570;172.580;2024-02-21T05:44:51;102586.50;;;26.90;38.45
68855;BME280;69984;-43.570;172.580;2024-02-21T05:47:18;102592.69;;;27.50;37.68
68855;BME280;69984;-43.570;172.580;2024-02-21T05:49:47;102593.41;;;27.76;36.97
68855;BME280;69984;-43.570;172.580;2024-02-21T05:52:14;102597.03;;;26.59;38.23
68855;BME280;69984;-43.570;172.580;2024-02-21T05:54:41;102598.03;;;26.51;38.36
68855;BME280;69984;-43.570;172.580;2024-02-21T05:57:08;102597.84;;;26.53;38.49
68855;BME280;69984;-43.570;172.580;2024-02-21T05:59:38;102600.81;;;26.84;38.22
68855;BME280;69984;-43.570;172.580;2024-02-21T06:02:07;102609.25;;;27.47;37.10
68855;BME280;69984;-43.570;172.580;2024-02-21T06:04:34;102597.69;;;26.94;37.93
68855;BME280;69984;-43.570;172.580;2024-02-21T06:07:01;102604.50;;;26.03;39.58
68855;BME280;69984;-43.570;172.580;2024-02-21T06:09:28;102598.06;;;26.64;37.76
68855;BME280;69984;-43.570;172.580;2024-02-21T06:11:55;102596.00;;;25.30;40.83
68855;BME280;69984;-43.570;172.580;2024-02-21T06:14:22;102599.88;;;26.44;38.68
68855;BME280;69984;-43.570;172.580;2024-02-21T06:16:49;102598.38;;;26.28;39.23
68855;BME280;69984;-43.570;172.580;2024-02-21T06:19:16;102597.34;;;24.92;41.23
68855;BME280;69984;-43.570;172.580;2024-02-21T06:21:43;102598.28;;;26.02;39.27
68855;BME280;69984;-43.570;172.580;2024-02-21T06:24:10;102603.28;;;25.64;39.55
68855;BME280;69984;-43.570;172.580;2024-02-21T06:26:40;102600.75;;;26.04;39.30
68855;BME280;69984;-43.570;172.580;2024-02-21T06:29:07;102605.69;;;24.97;41.04
68855;BME280;69984;-43.570;172.580;2024-02-21T06:31:34;102612.94;;;24.10;42.57
68855;BME280;69984;-43.570;172.580;2024-02-21T06:34:01;102613.91;;;23.88;43.98
68855;BME280;69984;-43.570;172.580;2024-02-21T06:36:28;102616.28;;;24.27;43.16
68855;BME280;69984;-43.570;172.580;2024-02-21T06:38:55;102624.47;;;23.60;44.09
68855;BME280;69984;-43.570;172.580;2024-02-21T06:41:22;102630.34;;;23.56;44.69
68855;BME280;69984;-43.570;172.580;2024-02-21T06:43:49;102628.13;;;23.07;45.29
68855;BME280;69984;-43.570;172.580;2024-02-21T06:46:29;102637.75;;;23.54;44.75
68855;BME280;69984;-43.570;172.580;2024-02-21T06:48:56;102633.78;;;22.89;45.32
68855;BME280;69984;-43.570;172.580;2024-02-21T06:51:24;102636.16;;;23.07;45.96
68855;BME280;69984;-43.570;172.580;2024-02-21T06:53:54;102643.53;;;22.21;48.48
68855;BME280;69984;-43.570;172.580;2024-02-21T06:56:24;102631.94;;;21.81;49.68
68855;BME280;69984;-43.570;172.580;2024-02-21T06:58:58;102639.31;;;20.50;53.09
68855;BME280;69984;-43.570;172.580;2024-02-21T07:01:25;102649.00;;;20.59;53.86
68855;BME280;69984;-43.570;172.580;2024-02-21T07:03:52;102659.09;;;20.06;55.55
68855;BME280;69984;-43.570;172.580;2024-02-21T07:06:19;102656.41;;;19.46;57.96
68855;BME280;69984;-43.570;172.580;2024-02-21T07:08:46;102658.44;;;19.09;60.24
68855;BME280;69984;-43.570;172.580;2024-02-21T07:11:13;102664.13;;;17.96;68.47
68855;BME280;69984;-43.570;172.580;2024-02-21T07:13:40;102661.56;;;17.68;71.96
68855;BME280;69984;-43.570;172.580;2024-02-21T07:16:07;102663.41;;;17.38;76.10
68855;BME280;69984;-43.570;172.580;2024-02-21T07:18:34;102662.16;;;17.04;78.45
68855;BME280;69984;-43.570;172.580;2024-02-21T07:21:01;102661.06;;;16.78;81.00
68855;BME280;69984;-43.570;172.580;2024-02-21T07:23:28;102669.09;;;16.27;84.87
68855;BME280;69984;-43.570;172.580;2024-02-21T07:25:55;102673.81;;;16.14;88.00
68855;BME280;69984;-43.570;172.580;2024-02-21T07:28:22;102674.34;;;15.87;91.91
68855;BME280;69984;-43.570;172.580;2024-02-21T07:30:49;102678.47;;;15.38;94.44
68855;BME280;69984;-43.570;172.580;2024-02-21T07:33:16;102678.88;;;15.34;97.67
68855;BME280;69984;-43.570;172.580;2024-02-21T07:35:43;102691.56;;;15.40;98.93
68855;BME280;69984;-43.570;172.580;2024-02-21T07:38:14;102683.88;;;15.16;100.00
68855;BME280;69984;-43.570;172.580;2024-02-21T07:40:41;102687.28;;;15.28;100.00
68855;BME280;69984;-43.570;172.580;2024-02-21T07:43:09;102680.78;;;15.11;100.00
68855;BME280;69984;-43.570;172.580;2024-02-21T07:45:36;102692.59;;;14.85;100.00
68855;BME280;69984;-43.570;172.580;2024-02-21T07:48:03;102687.56;;;14.93;100.00
68855;BME280;69984;-43.570;172.580;2024-02-21T07:50:34;102695.44;;;15.04;100.00
68855;BME280;69984;-43.570;172.580;2024-02-21T07:53:01;102698.69;;;15.08;100.00
68855;BME280;69984;-43.570;172.580;2024-02-21T07:55:28;102698.84;;;14.95;100.00
68855;BME280;69984;-43.570;172.580;2024-02-21T07:57:55;102700.66;;;14.83;100.00
68855;BME280;69984;-43.570;172.580;2024-02-21T08:00:22;102712.72;;;14.54;100.00
68855;BME280;69984;-43.570;172.580;2024-02-21T08:02:49;102718.34;;;14.27;100.00
68855;BME280;69984;-43.570;172.580;2024-02-21T08:05:16;102724.56;;;14.15;100.00
68855;BME280;69984;-43.570;172.580;2024-02-21T08:07:43;102724.53;;;14.04;100.00
68855;BME280;69984;-43.570;172.580;2024-02-21T08:10:10;102730.66;;;14.05;100.00
68855;BME280;69984;-43.570;172.580;2024-02-21T08:12:38;102726.00;;;14.19;100.00
68855;BME280;69984;-43.570;172.580;2024-02-21T08:15:05;102729.84;;;14.26;100.00
68855;BME280;69984;-43.570;172.580;2024-02-21T08:17:34;102738.94;;;14.22;100.00
68855;BME280;69984;-43.570;172.580;2024-02-21T08:20:01;102741.56;;;14.11;100.00
68855;BME280;69984;-43.570;172.580;2024-02-21T08:22:29;102731.88;;;14.23;100.00
68855;BME280;69984;-43.570;172.580;2024-02-21T08:24:56;102742.66;;;14.09;100.00
68855;BME280;69984;-43.570;172.580;2024-02-21T08:27:23;102750.31;;;14.12;100.00
68855;BME280;69984;-43.570;172.580;2024-02-21T08:29:50;102751.06;;;14.02;100.00
68855;BME280;69984;-43.570;172.580;2024-02-21T08:32:17;102746.41;;;14.17;100.00
68855;BME280;69984;-43.570;172.580;2024-02-21T08:34:44;102741.94;;;14.07;100.00
68855;BME280;69984;-43.570;172.580;2024-02-21T08:37:11;102753.72;;;14.14;100.00
68855;BME280;69984;-43.570;172.580;2024-02-21T08:39:38;102754.06;;;14.20;100.00
68855;BME280;69984;-43.570;172.580;2024-02-21T08:42:05;102763.16;;;14.05;100.00
68855;BME280;69984;-43.570;172.580;2024-02-21T08:44:32;102769.25;;;13.94;100.00
68855;BME280;69984;-43.570;172.580;2024-02-21T08:46:59;102770.19;;;13.82;100.00
68855;BME280;69984;-43.570;172.580;2024-02-21T08:49:29;102772.25;;;14.01;100.00
68855;BME280;69984;-43.570;172.580;2024-02-21T08:51:57;102774.19;;;14.10;100.00
68855;BME280;69984;-43.570;172.580;2024-02-21T08:54:24;102777.84;;;13.85;100.00
68855;BME280;69984;-43.570;172.580;2024-02-21T08:56:51;102787.50;;;13.74;100.00
68855;BME280;69984;-43.570;172.580;2024-02-21T08:59:18;102790.88;;;13.76;100.00
68855;BME280;69984;-43.570;172.580;2024-02-21T09:01:45;102788.84;;;13.79;100.00
68855;BME280;69984;-43.570;172.580;2024-02-21T09:04:12;102785.56;;;13.65;100.00
68855;BME280;69984;-43.570;172.580;2024-02-21T09:06:39;102791.22;;;13.71;100.00
68855;BME280;69984;-43.570;172.580;2024-02-21T09:09:11;102795.84;;;13.57;100.00
68855;BME280;69984;-43.570;172.580;2024-02-21T09:11:38;102794.38;;;13.52;100.00
68855;BME280;69984;-43.570;172.580;2024-02-21T09:14:06;102800.31;;;13.67;100.00
68855;BME280;69984;-43.570;172.580;2024-02-21T09:16:33;102800.22;;;13.80;100.00
68855;BME280;69984;-43.570;172.580;2024-02-21T09:19:00;102794.88;;;13.58;100.00
68855;BME280;69984;-43.570;172.580;2024-02-21T09:21:27;102800.09;;;13.46;100.00
68855;BME280;69984;-43.570;172.580;2024-02-21T09:23:54;102798.19;;;13.48;100.00
68855;BME280;69984;-43.570;172.580;2024-02-21T09:26:21;102801.25;;;13.66;100.00
68855;BME280;69984;-43.570;172.580;2024-02-21T09:28:48;102793.88;;;13.71;100.00
68855;BME280;69984;-43.570;172.580;2024-02-21T09:31:15;102796.25;;;13.74;100.00
68855;BME280;69984;-43.570;172.580;2024-02-21T09:33:42;102803.09;;;13.77;100.00
68855;BME280;69984;-43.570;172.580;2024-02-21T09:36:09;102793.59;;;13.63;100.00
68855;BME280;69984;-43.570;172.580;2024-02-21T09:38:39;102793.19;;;13.57;100.00
68855;BME280;69984;-43.570;172.580;2024-02-21T09:41:23;102790.00;;;13.64;100.00
68855;BME280;69984;-43.570;172.580;2024-02-21T09:43:52;102791.03;;;13.50;100.00
68855;BME280;69984;-43.570;172.580;2024-02-21T09:47:03;102789.09;;;13.52;100.00
68855;BME280;69984;-43.570;172.580;2024-02-21T09:49:35;102778.81;;;13.49;100.00
68855;BME280;69984;-43.570;172.580;2024-02-21T09:52:07;102784.53;;;13.43;100.00
68855;BME280;69984;-43.570;172.580;2024-02-21T09:54:34;102785.28;;;13.57;100.00
68855;BME280;69984;-43.570;172.580;2024-02-21T09:57:05;102786.09;;;13.46;100.00
68855;BME280;69984;-43.570;172.580;2024-02-21T09:59:33;102793.00;;;13.36;100.00
68855;BME280;69984;-43.570;172.580;2024-02-21T10:02:00;102794.38;;;13.52;100.00
68855;BME280;69984;-43.570;172.580;2024-02-21T10:04:28;102791.22;;;13.47;100.00
68855;BME280;69984;-43.570;172.580;2024-02-21T10:06:55;102790.06;;;13.51;100.00
68855;BME280;69984;-43.570;172.580;2024-02-21T10:09:27;102788.16;;;13.54;100.00
68855;BME280;69984;-43.570;172.580;2024-02-21T10:11:56;102797.84;;;13.53;100.00
68855;BME280;69984;-43.570;172.580;2024-02-21T10:14:23;102790.22;;;13.61;100.00
68855;BME280;69984;-43.570;172.580;2024-02-21T10:16:57;102793.06;;;13.58;100.00
68855;BME280;69984;-43.570;172.580;2024-02-21T10:19:28;102792.97;;;13.60;100.00
68855;BME280;69984;-43.570;172.580;2024-02-21T10:22:10;102786.69;;;13.49;100.00
68855;BME280;69984;-43.570;172.580;2024-02-21T10:24:38;102790.22;;;13.61;100.00
68855;BME280;69984;-43.570;172.580;2024-02-21T10:27:08;102787.78;;;13.47;100.00
68855;BME280;69984;-43.570;172.580;2024-02-21T10:29:38;102791.47;;;13.44;100.00
68855;BME280;69984;-43.570;172.580;2024-02-21T10:32:11;102790.63;;;13.44;100.00
68855;BME280;69984;-43.570;172.580;2024-02-21T10:34:40;102797.19;;;13.38;100.00
68855;BME280;69984;-43.570;172.580;2024-02-21T10:37:11;102800.56;;;13.40;100.00
68855;BME280;69984;-43.570;172.580;2024-02-21T10:39:40;102794.31;;;13.41;100.00
68855;BME280;69984;-43.570;172.580;2024-02-21T10:42:06;102791.47;;;13.44;100.00
68855;BME280;69984;-43.570;172.580;2024-02-21T10:44:37;102790.69;;;13.31;100.00
68855;BME280;69984;-43.570;172.580;2024-02-21T10:47:12;102796.72;;;13.44;100.00
68855;BME280;69984;-43.570;172.580;2024-02-21T10:49:53;102787.16;;;13.43;100.00
68855;BME280;69984;-43.570;172.580;2024-02-21T10:55:37;102774.94;;;13.42;100.00
68855;BME280;69984;-43.570;172.580;2024-02-21T10:58:05;102775.88;;;13.41;100.00
68855;BME280;69984;-43.570;172.580;2024-02-21T11:00:33;102767.09;;;13.30;100.00
68855;BME280;69984;-43.570;172.580;2024-02-21T11:03:01;102769.38;;;13.34;100.00
68855;BME280;69984;-43.570;172.580;2024-02-21T11:05:30;102768.22;;;13.38;100.00
68855;BME280;69984;-43.570;172.580;2024-02-21T11:07:58;102767.88;;;13.43;100.00
68855;BME280;69984;-43.570;172.580;2024-02-21T11:10:26;102772.84;;;13.35;100.00
68855;BME280;69984;-43.570;172.580;2024-02-21T11:13:13;102757.34;;;13.43;100.00
68855;BME280;69984;-43.570;172.580;2024-02-21T11:15:40;102761.75;;;13.42;100.00
68855;BME280;69984;-43.570;172.580;2024-02-21T11:18:07;102764.69;;;13.50;100.00
68855;BME280;69984;-43.570;172.580;2024-02-21T11:20:35;102766.09;;;13.43;100.00
68855;BME280;69984;-43.570;172.580;2024-02-21T11:23:03;102767.38;;;13.38;100.00
68855;BME280;69984;-43.570;172.580;2024-02-21T11:25:30;102772.75;;;13.36;100.00
68855;BME280;69984;-43.570;172.580;2024-02-21T11:28:02;102769.06;;;13.39;100.00
68855;BME280;69984;-43.570;172.580;2024-02-21T11:30:33;102758.22;;;13.31;100.00
68855;BME280;69984;-43.570;172.580;2024-02-21T11:33:02;102762.09;;;13.38;100.00
68855;BME280;69984;-43.570;172.580;2024-02-21T11:35:36;102758.75;;;13.36;100.00
68855;BME280;69984;-43.570;172.580;2024-02-21T11:38:13;102747.94;;;13.28;100.00
68855;BME280;69984;-43.570;172.580;2024-02-21T11:40:47;102751.00;;;13.22;100.00
68855;BME280;69984;-43.570;172.580;2024-02-21T11:43:15;102754.50;;;13.22;100.00
68855;BME280;69984;-43.570;172.580;2024-02-21T11:45:43;102748.00;;;13.15;100.00
68855;BME280;69984;-43.570;172.580;2024-02-21T11:48:10;102745.03;;;13.07;100.00
68855;BME280;69984;-43.570;172.580;2024-02-21T11:50:37;102746.22;;;13.03;100.00
68855;BME280;69984;-43.570;172.580;2024-02-21T11:53:06;102743.06;;;13.11;100.00
68855;BME280;69984;-43.570;172.580;2024-02-21T11:55:33;102742.00;;;13.00;100.00
68855;BME280;69984;-43.570;172.580;2024-02-21T11:58:00;102734.16;;;12.88;100.00
68855;BME280;69984;-43.570;172.580;2024-02-21T12:00:27;102738.00;;;12.95;100.00
68855;BME280;69984;-43.570;172.580;2024-02-21T12:02:55;102738.69;;;12.86;100.00
68855;BME280;69984;-43.570;172.580;2024-02-21T12:05:28;102745.66;;;12.87;100.00
68855;BME280;69984;-43.570;172.580;2024-02-21T12:07:55;102751.59;;;13.01;100.00
68855;BME280;69984;-43.570;172.580;2024-02-21T12:10:22;102736.84;;;13.12;100.00
68855;BME280;69984;-43.570;172.580;2024-02-21T12:12:49;102741.28;;;13.11;100.00
68855;BME280;69984;-43.570;172.580;2024-02-21T12:15:19;102743.44;;;13.17;100.00
68855;BME280;69984;-43.570;172.580;2024-02-21T12:17:45;102736.44;;;13.29;100.00
68855;BME280;69984;-43.570;172.580;2024-02-21T12:20:12;102734.81;;;13.39;100.00
68855;BME280;69984;-43.570;172.580;2024-02-21T12:22:44;102731.84;;;13.43;100.00
68855;BME280;69984;-43.570;172.580;2024-02-21T12:25:18;102739.97;;;13.40;100.00
68855;BME280;69984;-43.570;172.580;2024-02-21T12:27:49;102725.03;;;13.52;100.00